createdAt,value
2023-05-04T00:02:53.491Z,67.30
2023-05-04T00:06:35.442Z,67.30
2023-05-04T00:10:17.807Z,67.50
2023-05-04T00:13:59.712Z,67.70
2023-05-04T00:17:41.599Z,68.00
2023-05-04T00:21:23.676Z,68.20
2023-05-04T00:25:06.692Z,68.60
2023-05-04T00:28:48.518Z,69.00
2023-05-04T00:32:30.975Z,69.20
2023-05-04T00:36:14.000Z,69.40
2023-05-04T00:39:55.906Z,69.80
2023-05-04T00:43:37.670Z,70.00
2023-05-04T00:47:21.422Z,70.20
2023-05-04T00:51:04.087Z,70.40
2023-05-04T00:54:47.673Z,70.80
2023-05-04T00:58:31.480Z,71.10
2023-05-04T01:02:13.627Z,71.20
2023-05-04T01:06:09.178Z,71.40
2023-05-04T01:09:59.855Z,71.30
2023-05-04T01:13:43.103Z,71.60
2023-05-04T01:17:25.024Z,71.80
2023-05-04T01:21:07.137Z,72.00
2023-05-04T01:24:51.149Z,72.00
2023-05-04T01:28:49.206Z,72.20
2023-05-04T01:32:32.179Z,71.90
2023-05-04T01:36:14.299Z,72.30
2023-05-04T01:39:56.238Z,72.40
2023-05-04T01:43:38.048Z,72.70
2023-05-04T01:47:19.920Z,72.80
2023-05-04T01:51:01.751Z,73.00
2023-05-04T01:54:43.581Z,73.20
2023-05-04T01:58:25.383Z,73.60
2023-05-04T02:02:07.294Z,73.70
2023-05-04T02:05:49.080Z,74.10
2023-05-04T02:09:31.818Z,74.30
2023-05-04T02:13:13.703Z,74.60
2023-05-04T02:16:55.975Z,74.80
2023-05-04T02:20:37.730Z,75.00
2023-05-04T02:24:19.511Z,75.10
2023-05-04T02:28:01.309Z,75.30
2023-05-04T02:31:43.169Z,75.40
2023-05-04T02:35:25.084Z,75.60
2023-05-04T02:39:06.948Z,75.70
2023-05-04T02:42:49.039Z,75.90
2023-05-04T02:46:32.240Z,76.10
2023-05-04T02:50:14.141Z,76.20
2023-05-04T02:53:55.997Z,76.40
2023-05-04T02:57:37.789Z,76.50
2023-05-04T03:01:19.629Z,76.80
2023-05-04T03:05:01.435Z,77.10
2023-05-04T03:08:43.234Z,77.20
2023-05-04T03:12:25.346Z,77.60
2023-05-04T03:16:07.247Z,77.90
2023-05-04T03:19:49.027Z,78.00
2023-05-04T03:23:30.830Z,78.20
2023-05-04T03:27:12.986Z,78.50
2023-05-04T03:30:54.827Z,78.60
2023-05-04T03:34:36.635Z,79.00
2023-05-04T03:38:18.455Z,79.30
2023-05-04T03:42:00.947Z,79.50
2023-05-04T03:45:42.800Z,79.70
2023-05-04T03:49:24.613Z,80.00
2023-05-04T03:53:06.476Z,80.10
2023-05-04T03:56:48.288Z,80.50
2023-05-04T04:00:30.111Z,80.60
2023-05-04T04:04:11.911Z,80.70
2023-05-04T04:07:53.745Z,81.00
2023-05-04T04:11:35.953Z,81.20
2023-05-04T04:15:17.766Z,81.40
2023-05-04T04:19:01.790Z,81.40
2023-05-04T04:22:43.594Z,81.60
2023-05-04T04:26:25.420Z,81.70
2023-05-04T04:30:08.039Z,82.00
2023-05-04T04:33:50.285Z,82.10
2023-05-04T04:37:32.088Z,82.10
2023-05-04T04:41:14.048Z,82.30
2023-05-04T04:44:56.251Z,82.40
2023-05-04T04:48:38.083Z,82.70
2023-05-04T04:52:19.880Z,82.80
2023-05-04T04:56:01.665Z,83.00
2023-05-04T04:59:43.538Z,83.10
2023-05-04T05:03:25.723Z,83.20
2023-05-04T05:07:08.999Z,83.40
2023-05-04T05:10:50.947Z,83.60
2023-05-04T05:14:33.283Z,83.80
2023-05-04T05:18:15.038Z,84.10
2023-05-04T05:21:59.799Z,84.40
2023-05-04T05:25:41.669Z,84.50
2023-05-04T05:29:23.583Z,84.80
2023-05-04T05:33:05.753Z,84.90
2023-05-04T05:36:49.069Z,85.00
2023-05-04T05:40:31.311Z,85.00
2023-05-04T05:44:13.344Z,85.00
2023-05-04T05:47:55.244Z,85.00
2023-05-04T05:51:37.200Z,85.10
2023-05-04T05:55:19.108Z,85.10
2023-05-04T05:59:00.927Z,85.00
2023-05-04T06:02:43.088Z,85.00
2023-05-04T06:06:25.111Z,85.00
2023-05-04T06:10:07.530Z,85.10
2023-05-04T06:13:49.644Z,84.90
2023-05-04T06:17:31.689Z,85.10
2023-05-04T06:21:13.877Z,85.00
2023-05-04T06:25:00.458Z,85.10
2023-05-04T06:28:44.869Z,85.00
2023-05-04T06:32:26.848Z,84.90
2023-05-04T06:36:08.899Z,84.90
2023-05-04T06:39:50.748Z,84.90
2023-05-04T06:43:33.131Z,84.80
2023-05-04T06:47:15.855Z,84.70
2023-05-04T06:50:57.690Z,84.80
2023-05-04T06:54:40.362Z,84.40
2023-05-04T06:58:22.372Z,84.00
2023-05-04T07:02:04.215Z,84.00
2023-05-04T07:05:48.597Z,83.10
2023-05-04T07:09:30.442Z,82.60
2023-05-04T07:13:12.691Z,82.10
2023-05-04T07:16:54.899Z,81.80
2023-05-04T07:20:36.772Z,81.40
2023-05-04T07:24:18.821Z,81.30
2023-05-04T07:28:01.101Z,80.80
2023-05-04T07:31:42.996Z,80.50
2023-05-04T07:35:24.898Z,79.60
2023-05-04T07:39:07.684Z,78.80
2023-05-04T07:42:49.527Z,78.30
2023-05-04T07:46:31.445Z,77.30
2023-05-04T07:50:14.109Z,77.10
2023-05-04T07:53:55.914Z,76.80
2023-05-04T07:57:37.884Z,76.80
2023-05-04T08:01:19.729Z,76.90
2023-05-04T08:05:01.658Z,76.50
2023-05-04T08:08:44.805Z,76.00
2023-05-04T08:12:27.127Z,75.40
2023-05-04T08:16:10.296Z,74.50
2023-05-04T08:19:52.112Z,73.60
2023-05-04T08:23:34.117Z,72.80
2023-05-04T08:27:16.259Z,71.70
2023-05-04T08:30:58.090Z,70.30
2023-05-04T08:34:39.959Z,69.90
2023-05-04T08:38:21.745Z,69.60
2023-05-04T08:42:03.708Z,69.50
2023-05-04T08:45:45.726Z,69.30
2023-05-04T08:49:27.846Z,68.50
2023-05-04T08:53:13.844Z,68.30
2023-05-04T08:56:57.106Z,68.10
2023-05-04T09:00:39.463Z,68.10
2023-05-04T09:04:22.416Z,68.50
2023-05-04T09:08:04.418Z,68.90
2023-05-04T09:11:47.893Z,68.30
2023-05-04T09:15:34.458Z,68.10
2023-05-04T09:19:20.865Z,68.10
2023-05-04T09:23:09.712Z,68.30
2023-05-04T09:26:51.927Z,67.00
2023-05-04T09:30:33.720Z,65.30
2023-05-04T09:34:16.397Z,64.90
2023-05-04T09:37:58.302Z,65.20
2023-05-04T09:41:41.722Z,65.30
2023-05-04T09:45:23.609Z,63.30
2023-05-04T09:49:05.427Z,62.80
2023-05-04T09:52:48.064Z,63.40
2023-05-04T09:56:29.992Z,62.60
2023-05-04T10:00:17.236Z,63.00
2023-05-04T10:03:59.156Z,62.20
2023-05-04T10:07:42.853Z,57.70
2023-05-04T10:11:26.356Z,56.40
2023-05-04T10:15:12.455Z,55.00
2023-05-04T10:19:12.773Z,55.40
2023-05-04T10:23:34.888Z,60.40
2023-05-04T10:27:52.097Z,56.80
2023-05-04T10:31:41.347Z,55.80
2023-05-04T10:35:23.640Z,54.90
2023-05-04T10:39:17.667Z,54.60
2023-05-04T10:42:59.778Z,55.40
2023-05-04T10:46:41.684Z,56.00
2023-05-04T10:50:23.508Z,56.20
2023-05-04T10:54:05.405Z,56.30
2023-05-04T10:57:53.865Z,57.20
2023-05-04T11:01:45.419Z,57.20
2023-05-04T11:05:27.503Z,58.10
2023-05-04T11:09:12.342Z,58.00
2023-05-04T11:13:02.218Z,57.90
2023-05-04T11:16:45.902Z,58.30
2023-05-04T11:20:28.077Z,58.70
2023-05-04T11:24:09.937Z,59.10
2023-05-04T11:27:51.937Z,58.80
2023-05-04T11:31:33.790Z,58.80
2023-05-04T11:35:19.548Z,59.10
2023-05-04T11:39:02.668Z,60.10
2023-05-04T11:42:45.002Z,60.30
2023-05-04T11:46:27.927Z,60.40
2023-05-04T11:50:11.619Z,61.20
2023-05-04T11:53:54.291Z,61.60
2023-05-04T11:57:37.694Z,61.90
2023-05-04T12:01:19.514Z,62.30
2023-05-04T12:05:02.321Z,62.60
2023-05-04T12:08:44.170Z,61.90
2023-05-04T12:12:35.926Z,61.70
2023-05-04T12:16:21.181Z,62.00
2023-05-04T12:20:03.241Z,62.10
2023-05-04T12:23:46.407Z,61.60
2023-05-04T12:27:28.898Z,60.90
2023-05-04T12:31:10.759Z,60.70
2023-05-04T12:34:52.647Z,59.60
2023-05-04T12:38:34.809Z,57.60
2023-05-04T12:42:16.704Z,56.60
2023-05-04T12:45:58.602Z,56.40
2023-05-04T12:49:40.693Z,56.90
2023-05-04T12:53:24.561Z,57.20
2023-05-04T12:57:06.436Z,56.90
2023-05-04T13:00:49.098Z,56.60
2023-05-04T13:04:31.369Z,56.40
2023-05-04T13:08:13.461Z,56.50
2023-05-04T13:11:55.647Z,55.70
2023-05-04T13:15:37.706Z,56.00
2023-05-04T13:19:19.574Z,56.30
2023-05-04T13:23:04.289Z,56.00
2023-05-04T13:26:46.664Z,55.00
2023-05-04T13:30:28.544Z,53.70
2023-05-04T13:34:10.476Z,53.70
2023-05-04T13:37:52.625Z,54.40
2023-05-04T13:41:34.504Z,54.10
2023-05-04T13:45:16.440Z,55.50
2023-05-04T13:48:58.344Z,55.80
2023-05-04T13:52:40.177Z,56.30
2023-05-04T13:56:22.057Z,55.80
2023-05-04T14:00:08.157Z,56.10
2023-05-04T14:03:50.480Z,57.40
2023-05-04T14:07:32.715Z,57.70
2023-05-04T14:11:14.528Z,58.30
2023-05-04T14:14:57.283Z,58.90
2023-05-04T14:18:39.143Z,58.80
2023-05-04T14:22:21.083Z,59.60
2023-05-04T14:26:02.937Z,60.20
2023-05-04T14:29:47.168Z,60.60
2023-05-04T14:33:29.710Z,60.80
2023-05-04T14:37:11.769Z,61.80
2023-05-04T14:40:55.381Z,62.00
2023-05-04T14:44:37.176Z,63.10
2023-05-04T14:48:19.380Z,63.20
2023-05-04T14:52:01.263Z,65.20
2023-05-04T14:55:43.623Z,65.30
2023-05-04T14:59:26.179Z,66.00
2023-05-04T15:03:09.105Z,66.00
2023-05-04T15:06:52.408Z,66.70
2023-05-04T15:10:34.426Z,67.00
2023-05-04T15:14:16.366Z,67.30
2023-05-04T15:17:58.278Z,66.50
2023-05-04T15:21:40.449Z,67.40
2023-05-04T15:25:23.910Z,65.00
2023-05-04T15:29:06.698Z,65.00
2023-05-04T15:32:48.597Z,65.20
2023-05-04T15:36:33.470Z,65.70
2023-05-04T15:40:15.314Z,65.50
2023-05-04T15:43:57.097Z,67.30
2023-05-04T15:47:38.977Z,71.70
2023-05-04T15:51:21.035Z,75.10
2023-05-04T15:55:13.004Z,78.00
2023-05-04T15:59:05.537Z,80.90
2023-05-04T16:02:47.427Z,82.50
2023-05-04T16:06:29.322Z,83.10
2023-05-04T16:10:11.370Z,84.60
2023-05-04T16:13:53.274Z,86.70
2023-05-04T16:17:35.535Z,86.70
2023-05-04T16:21:17.541Z,87.30
2023-05-04T16:24:59.971Z,88.50
2023-05-04T16:28:41.784Z,89.20
2023-05-04T16:32:23.755Z,90.10
2023-05-04T16:36:06.797Z,90.00
2023-05-04T16:39:48.677Z,90.20
2023-05-04T16:43:30.732Z,90.40
2023-05-04T16:47:12.611Z,90.30
2023-05-04T16:50:54.412Z,90.30
2023-05-04T16:54:36.416Z,89.90
2023-05-04T16:58:18.249Z,90.20
2023-05-04T17:02:00.178Z,90.20
2023-05-04T17:05:41.975Z,90.70
2023-05-04T17:09:23.842Z,90.20
2023-05-04T17:13:06.708Z,89.40
2023-05-04T17:16:48.595Z,89.50
2023-05-04T17:20:31.992Z,88.50
2023-05-04T17:24:15.210Z,89.20
2023-05-04T17:27:57.027Z,89.10
2023-05-04T17:31:38.958Z,88.90
2023-05-04T17:35:25.664Z,89.00
2023-05-04T17:39:08.063Z,88.70
2023-05-04T17:42:49.911Z,87.90
2023-05-04T17:46:31.988Z,87.80
2023-05-04T17:50:13.960Z,88.00
2023-05-04T17:53:55.797Z,87.30
2023-05-04T17:57:37.696Z,87.60
2023-05-04T18:01:19.620Z,87.80
2023-05-04T18:05:01.438Z,87.50
2023-05-04T18:08:43.310Z,88.10
2023-05-04T18:12:25.195Z,88.00
2023-05-04T18:16:07.156Z,88.00
2023-05-04T18:19:48.987Z,88.50
2023-05-04T18:23:31.021Z,89.00
2023-05-04T18:27:12.805Z,88.90
2023-05-04T18:30:54.598Z,88.70
2023-05-04T18:34:37.278Z,89.20
2023-05-04T18:38:19.074Z,89.00
2023-05-04T18:42:01.821Z,89.60
2023-05-04T18:45:43.650Z,89.90
2023-05-04T18:49:25.589Z,89.90
2023-05-04T18:53:07.657Z,90.30
2023-05-04T18:56:49.447Z,90.20
2023-05-04T19:00:31.286Z,90.40
2023-05-04T19:04:13.059Z,90.50
2023-05-04T19:07:54.886Z,90.40
2023-05-04T19:11:36.852Z,90.40
2023-05-04T19:15:18.808Z,90.70
2023-05-04T19:19:00.603Z,90.80
2023-05-04T19:22:42.463Z,90.80
2023-05-04T19:26:24.562Z,90.80
2023-05-04T19:30:07.318Z,90.90
2023-05-04T19:33:49.702Z,91.20
2023-05-04T19:37:31.720Z,91.20
2023-05-04T19:41:14.091Z,91.30
2023-05-04T19:44:56.543Z,91.50
2023-05-04T19:48:39.001Z,91.70
2023-05-04T19:52:20.931Z,91.70
2023-05-04T19:56:02.820Z,91.80
2023-05-04T19:59:46.884Z,91.90
2023-05-04T20:03:29.154Z,92.10
2023-05-04T20:07:11.034Z,92.30
2023-05-04T20:10:52.827Z,92.50
2023-05-04T20:14:34.813Z,92.50
2023-05-04T20:18:16.895Z,92.60
2023-05-04T20:21:58.888Z,92.80
2023-05-04T20:25:40.688Z,92.90
2023-05-04T20:29:22.642Z,93.00
2023-05-04T20:33:04.547Z,93.10
2023-05-04T20:36:47.002Z,93.20
2023-05-04T20:40:29.065Z,93.20
2023-05-04T20:44:11.166Z,93.30
2023-05-04T20:47:53.021Z,93.50
2023-05-04T20:51:35.311Z,93.50
2023-05-04T20:55:18.183Z,93.70
2023-05-04T20:59:00.052Z,93.80
2023-05-04T21:02:42.642Z,93.90
2023-05-04T21:06:24.702Z,94.00
2023-05-04T21:10:08.090Z,94.10
2023-05-04T21:13:50.099Z,94.10
2023-05-04T21:17:31.920Z,94.30
2023-05-04T21:21:14.401Z,94.50
2023-05-04T21:24:56.742Z,94.60
2023-05-04T21:28:38.632Z,94.60
2023-05-04T21:32:20.882Z,94.70
2023-05-04T21:36:15.781Z,94.80
2023-05-04T21:39:57.555Z,94.70
2023-05-04T21:43:39.409Z,94.90
2023-05-04T21:47:21.337Z,95.00
2023-05-04T21:51:03.298Z,94.90
2023-05-04T21:54:45.176Z,95.00
2023-05-04T21:58:27.258Z,94.90
2023-05-04T22:02:09.816Z,94.90
2023-05-04T22:05:57.554Z,94.90
2023-05-04T22:09:39.348Z,95.00
2023-05-04T22:13:21.852Z,95.00
2023-05-04T22:17:03.980Z,95.10
2023-05-04T22:20:46.651Z,95.10
2023-05-04T22:24:28.510Z,95.20
2023-05-04T22:28:10.697Z,95.20
2023-05-04T22:31:52.574Z,95.40
2023-05-04T22:35:34.476Z,95.50
2023-05-04T22:39:16.563Z,95.50
2023-05-04T22:42:58.408Z,95.60
2023-05-04T22:46:40.296Z,95.60
2023-05-04T22:50:22.290Z,95.70
2023-05-04T22:54:04.235Z,95.80
2023-05-04T22:57:46.093Z,95.80
2023-05-04T23:01:30.230Z,95.80
2023-05-04T23:05:13.077Z,96.00
2023-05-04T23:08:54.890Z,96.00
2023-05-04T23:12:36.991Z,96.00
2023-05-04T23:16:19.257Z,96.00
2023-05-04T23:20:01.173Z,96.10
2023-05-04T23:23:42.991Z,96.10
2023-05-04T23:27:25.182Z,96.10
2023-05-04T23:31:07.003Z,96.20
2023-05-04T23:34:49.994Z,96.20
2023-05-04T23:38:32.009Z,96.30
2023-05-04T23:42:13.859Z,96.40
2023-05-04T23:46:00.382Z,96.40
2023-05-04T23:49:42.431Z,96.50
2023-05-04T23:53:25.172Z,96.60
2023-05-04T23:57:10.542Z,96.70
